Woodland, Wisconsin
Current Conditions -  °F | °C
As of 2:15 PM on Saturday 25 Oct 2014 (Local Time) from KUNU Reporting Station
Clear Clear  
Wind Chill: 65°   Ceiling: Unl
Heat Index: 65°   Visibility: 10mi
Dew Point: 28°   Wind: 16mph
Humidity: 25%   Direction: 270°W
Pressure: 29.91"   Gusts: 22mph
Location:  43.37°N, 88.52°W
Report Text: KUNU 251915Z AUTO 27014G19KT 240V310 10SM CLR 18/M02 A2991 RMK AO2 T01831023
Loading
Personal Weather Stations






























Interactive Weather Map
Tropical Storm Tracking
New forecast layout! Learn more

10-Day Weather Forecast

Advertisements
Track Severe Weather on mobile